createdAt,value
2023-03-11T00:00:30.712Z,97884.19
2023-03-11T00:03:33.589Z,97887.44
2023-03-11T00:06:36.221Z,97892.97
2023-03-11T00:09:39.202Z,97891.75
2023-03-11T00:12:41.816Z,97890.09
2023-03-11T00:15:47.360Z,97893.78
2023-03-11T00:18:51.272Z,97892.97
2023-03-11T00:21:54.328Z,97893.78
2023-03-11T00:24:56.957Z,97885.41
2023-03-11T00:28:00.589Z,97889.91
2023-03-11T00:31:04.083Z,97890.09
2023-03-11T00:34:07.146Z,97901.94
2023-03-11T00:37:09.688Z,97903.56
2023-03-11T00:40:18.785Z,97889.09
2023-03-11T00:43:21.341Z,97897.03
2023-03-11T00:46:24.497Z,97900.31
2023-03-11T00:49:27.128Z,97894.38
2023-03-11T00:52:30.088Z,97898.28
2023-03-11T00:55:34.627Z,97890.91
2023-03-11T00:58:38.247Z,97898.88
2023-03-11T01:01:41.074Z,97897.03
2023-03-11T01:04:44.056Z,97894.41
2023-03-11T01:07:47.564Z,97900.50
2023-03-11T01:10:50.621Z,97896.03
2023-03-11T01:13:53.932Z,97901.16
2023-03-11T01:16:57.141Z,97893.59
2023-03-11T01:19:59.693Z,97892.16
2023-03-11T01:23:02.709Z,97879.09
2023-03-11T01:26:05.323Z,97866.03
2023-03-11T01:29:08.263Z,97879.94
2023-03-11T01:32:12.346Z,97876.22
2023-03-11T01:35:18.334Z,97868.88
2023-03-11T01:38:22.245Z,97870.50
2023-03-11T01:41:25.039Z,97867.25
2023-03-11T01:44:27.900Z,97867.03
2023-03-11T01:47:37.746Z,97874.19
2023-03-11T01:50:45.829Z,97865.81
2023-03-11T01:53:49.226Z,97877.66
2023-03-11T01:56:52.656Z,97867.87
2023-03-11T01:59:57.872Z,97850.31
2023-03-11T02:03:04.504Z,97864.19
2023-03-11T02:06:11.651Z,97863.53
2023-03-11T02:09:14.506Z,97869.03
2023-03-11T02:12:17.501Z,97881.50
2023-03-11T02:15:20.154Z,97881.28
2023-03-11T02:18:23.529Z,97883.31
2023-03-11T02:21:29.695Z,97894.34
2023-03-11T02:24:45.614Z,97882.87
2023-03-11T02:27:50.160Z,97889.22
2023-03-11T02:30:53.796Z,97891.88
2023-03-11T02:33:59.591Z,97887.78
2023-03-11T02:37:08.397Z,97869.63
2023-03-11T02:40:34.093Z,97887.75
2023-03-11T02:43:42.384Z,97887.56
2023-03-11T02:46:45.691Z,97878.22
2023-03-11T02:49:49.080Z,97877.59
2023-03-11T02:52:52.158Z,97877.78
2023-03-11T02:55:55.176Z,97873.09
2023-03-11T02:58:57.809Z,97869.84
2023-03-11T03:02:00.683Z,97866.37
2023-03-11T03:05:04.104Z,97866.78
2023-03-11T03:08:07.105Z,97868.00
2023-03-11T03:11:09.740Z,97892.47
2023-03-11T03:14:12.861Z,97869.44
2023-03-11T03:17:16.303Z,97875.94
2023-03-11T03:20:20.766Z,97875.50
2023-03-11T03:23:24.050Z,97882.91
2023-03-11T03:26:27.136Z,97886.56
2023-03-11T03:29:30.873Z,97884.75
2023-03-11T03:32:34.372Z,97909.44
2023-03-11T03:35:43.515Z,97923.66
2023-03-11T03:38:48.465Z,97926.72
2023-03-11T03:41:52.015Z,97912.19
2023-03-11T03:44:56.123Z,97925.12
2023-03-11T03:47:58.974Z,97930.78
2023-03-11T03:51:05.065Z,97923.03
2023-03-11T03:54:08.410Z,97924.69
2023-03-11T03:57:11.504Z,97917.28
2023-03-11T04:00:15.885Z,97927.47
2023-03-11T04:03:20.200Z,97925.81
2023-03-11T04:06:26.115Z,97932.72
2023-03-11T04:09:29.555Z,97929.84
2023-03-11T04:12:32.310Z,97934.75
2023-03-11T04:15:38.365Z,97949.81
2023-03-11T04:18:41.572Z,97948.31
2023-03-11T04:21:44.580Z,97980.31
2023-03-11T04:24:47.794Z,97973.34
2023-03-11T04:27:52.355Z,97981.81
2023-03-11T04:30:55.463Z,97997.66
2023-03-11T04:33:58.722Z,97988.00
2023-03-11T04:37:01.788Z,98010.72
2023-03-11T04:40:06.951Z,97986.00
2023-03-11T04:43:10.013Z,98005.00
2023-03-11T04:46:13.264Z,97975.06
2023-03-11T04:49:16.749Z,97990.19
2023-03-11T04:52:20.021Z,97964.63
2023-03-11T04:55:23.174Z,97984.38
2023-03-11T04:58:26.425Z,97975.31
2023-03-11T05:01:29.264Z,97966.22
2023-03-11T05:04:33.134Z,97975.13
2023-03-11T05:07:36.963Z,97988.44
2023-03-11T05:10:41.966Z,97992.22
2023-03-11T05:13:45.332Z,97994.34
2023-03-11T05:16:48.907Z,98000.19
2023-03-11T05:19:54.158Z,98007.59
2023-03-11T05:22:58.435Z,97999.97
2023-03-11T05:26:01.445Z,98017.75
2023-03-11T05:29:05.141Z,98002.81
2023-03-11T05:32:08.156Z,98011.81
2023-03-11T05:35:11.227Z,98022.25
2023-03-11T05:38:14.767Z,98028.75
2023-03-11T05:41:18.877Z,98034.09
2023-03-11T05:44:21.676Z,98035.66
2023-03-11T05:47:25.400Z,98061.97
2023-03-11T05:50:28.625Z,98052.06
2023-03-11T05:53:31.641Z,98062.34
2023-03-11T05:56:34.311Z,98074.38
2023-03-11T05:59:38.360Z,98071.03
2023-03-11T06:02:41.679Z,98061.91
2023-03-11T06:05:49.760Z,98080.31
2023-03-11T06:08:54.865Z,98077.03
2023-03-11T06:11:58.662Z,98069.72
2023-03-11T06:15:02.562Z,98095.75
2023-03-11T06:18:05.689Z,98090.66
2023-03-11T06:21:11.676Z,98086.38
2023-03-11T06:24:14.724Z,98093.25
2023-03-11T06:27:18.424Z,98083.16
2023-03-11T06:30:21.701Z,98097.81
2023-03-11T06:33:25.073Z,98119.94
2023-03-11T06:36:28.046Z,98154.03
2023-03-11T06:39:30.583Z,98146.00
2023-03-11T06:42:34.279Z,98124.38
2023-03-11T06:45:37.418Z,98136.25
2023-03-11T06:48:40.846Z,98161.12
2023-03-11T06:51:44.417Z,98162.94
2023-03-11T06:54:49.913Z,98165.44
2023-03-11T06:57:53.045Z,98187.19
2023-03-11T07:01:04.015Z,98178.28
2023-03-11T07:04:07.264Z,98172.37
2023-03-11T07:07:10.628Z,98145.28
2023-03-11T07:10:13.452Z,98157.69
2023-03-11T07:25:59.566Z,98202.44
2023-03-11T07:29:03.148Z,98202.44
2023-03-11T07:32:07.752Z,98193.97
2023-03-11T07:35:52.439Z,98213.81
2023-03-11T07:39:17.705Z,98201.53
2023-03-11T07:42:31.379Z,98221.69
2023-03-11T07:45:35.868Z,98218.69
2023-03-11T07:48:40.397Z,98203.50
2023-03-11T07:51:44.098Z,98201.72
2023-03-11T07:54:47.523Z,98207.25
2023-03-11T07:58:31.207Z,98188.53
2023-03-11T08:01:36.674Z,98192.47
2023-03-11T08:04:40.730Z,98194.66
2023-03-11T08:07:43.296Z,98199.28
2023-03-11T08:10:46.321Z,98205.38
2023-03-11T08:13:49.471Z,98192.81
2023-03-11T08:16:55.804Z,98196.03
2023-03-11T08:19:58.498Z,98208.88
2023-03-11T08:23:01.790Z,98181.22
2023-03-11T08:26:05.603Z,98223.44
2023-03-11T08:29:09.144Z,98237.16
2023-03-11T08:32:20.394Z,98245.56
2023-03-11T08:35:23.789Z,98232.75
2023-03-11T08:38:30.212Z,98208.66
2023-03-11T08:41:56.095Z,98186.00
2023-03-11T08:44:58.877Z,98171.87
2023-03-11T08:48:04.680Z,98168.28
2023-03-11T08:51:12.026Z,98175.66
2023-03-11T08:54:15.156Z,98191.09
2023-03-11T08:57:18.165Z,98199.53
2023-03-11T09:00:41.346Z,98193.03
2023-03-11T09:03:44.252Z,98195.84
2023-03-11T09:06:49.035Z,98164.41
2023-03-11T09:09:51.753Z,98173.00
2023-03-11T09:12:54.673Z,98161.16
2023-03-11T09:15:57.829Z,98163.44
2023-03-11T09:19:03.958Z,98128.97
2023-03-11T09:22:07.044Z,98158.06
2023-03-11T09:25:12.730Z,98160.62
2023-03-11T09:28:16.667Z,98167.28
2023-03-11T09:31:36.651Z,98168.62
2023-03-11T09:34:39.400Z,98187.22
2023-03-11T09:37:42.201Z,98185.75
2023-03-11T09:41:24.232Z,98207.94
2023-03-11T09:44:36.639Z,98200.69
2023-03-11T09:48:12.311Z,98221.19
2023-03-11T09:51:22.343Z,98228.97
2023-03-11T09:54:29.037Z,98251.38
2023-03-11T09:57:34.068Z,98258.34
2023-03-11T10:00:36.738Z,98269.78
2023-03-11T10:03:40.308Z,98272.41
2023-03-11T10:06:45.542Z,98302.34
2023-03-11T10:09:56.927Z,98310.31
2023-03-11T10:13:13.579Z,98308.00
2023-03-11T10:16:38.587Z,98315.53
2023-03-11T10:20:14.821Z,98302.56
2023-03-11T10:23:36.893Z,98335.53
2023-03-11T10:26:43.724Z,98341.47
2023-03-11T10:29:53.525Z,98335.09
2023-03-11T10:33:29.656Z,98346.75
2023-03-11T10:36:39.788Z,98344.12
2023-03-11T10:39:43.020Z,98337.56
2023-03-11T10:42:47.111Z,98352.91
2023-03-11T10:45:51.313Z,98365.91
2023-03-11T10:48:56.694Z,98383.03
2023-03-11T10:51:59.754Z,98384.34
2023-03-11T10:55:03.425Z,98372.47
2023-03-11T10:58:12.852Z,98363.56
2023-03-11T11:01:18.223Z,98388.25
2023-03-11T11:04:30.286Z,98395.16
2023-03-11T11:07:41.191Z,98383.59
2023-03-11T11:10:55.380Z,98392.91
2023-03-11T11:14:00.669Z,98405.19
2023-03-11T11:17:04.183Z,98397.28
2023-03-11T11:20:17.340Z,98399.59
2023-03-11T11:23:42.712Z,98413.59
2023-03-11T11:27:04.455Z,98395.22
2023-03-11T11:30:11.226Z,98399.59
2023-03-11T11:33:30.793Z,98393.09
2023-03-11T11:36:36.179Z,98404.88
2023-03-11T11:39:59.905Z,98394.00
2023-03-11T11:43:10.158Z,98391.31
2023-03-11T11:46:22.070Z,98398.31
2023-03-11T11:49:28.754Z,98387.00
2023-03-11T11:52:38.034Z,98394.44
2023-03-11T11:56:25.640Z,98392.69
2023-03-11T11:59:53.578Z,98395.59
2023-03-11T12:03:07.666Z,98355.09
2023-03-11T12:06:36.235Z,98394.66
2023-03-11T12:10:23.355Z,98383.97
2023-03-11T12:13:35.857Z,98418.28
2023-03-11T12:16:57.030Z,98411.28
2023-03-11T12:20:09.405Z,98411.59
2023-03-11T12:23:31.169Z,98396.75
2023-03-11T12:26:37.388Z,98407.34
2023-03-11T12:30:29.825Z,98420.88
2023-03-11T12:33:35.595Z,98427.62
2023-03-11T12:36:43.950Z,98432.56
2023-03-11T12:39:48.039Z,98419.31
2023-03-11T12:43:32.678Z,98425.13
2023-03-11T12:46:57.729Z,98439.81
2023-03-11T12:50:39.616Z,98449.72
2023-03-11T12:53:48.060Z,98454.97
2023-03-11T12:57:00.527Z,98467.13
2023-03-11T13:00:07.623Z,98470.91
2023-03-11T13:03:29.714Z,98464.66
2023-03-11T13:06:51.461Z,98482.66
2023-03-11T13:10:16.010Z,98483.16
2023-03-11T13:13:23.555Z,98484.13
2023-03-11T13:16:26.345Z,98482.47
2023-03-11T13:19:32.198Z,98495.53
2023-03-11T13:22:57.713Z,98492.06
2023-03-11T13:26:25.903Z,98506.59
2023-03-11T13:30:08.053Z,98527.56
2023-03-11T13:33:25.901Z,98529.41
2023-03-11T13:36:57.231Z,98548.22
2023-03-11T13:40:17.001Z,98558.09
2023-03-11T13:43:25.440Z,98556.97
2023-03-11T14:00:40.598Z,98576.31
2023-03-11T14:04:37.565Z,98576.31
2023-03-11T14:07:42.095Z,98593.75
2023-03-11T14:10:55.144Z,98590.28
2023-03-11T14:13:58.398Z,98595.38
2023-03-11T14:17:04.111Z,98590.44
2023-03-11T14:20:16.430Z,98599.00
2023-03-11T14:23:28.457Z,98594.72
2023-03-11T14:26:35.074Z,98615.03
2023-03-11T14:29:41.052Z,98613.06
2023-03-11T14:32:58.124Z,98616.16
2023-03-11T14:36:58.385Z,98632.47
2023-03-11T14:40:31.217Z,98633.97
2023-03-11T14:43:39.748Z,98635.44
2023-03-11T14:46:45.294Z,98635.28
2023-03-11T14:49:51.446Z,98631.97
2023-03-11T14:53:09.320Z,98647.97
2023-03-11T14:56:19.160Z,98638.41
2023-03-11T14:59:29.999Z,98649.97
2023-03-11T15:02:44.753Z,98663.00
2023-03-11T15:06:00.427Z,98670.91
2023-03-11T15:09:13.697Z,98694.34
2023-03-11T15:12:35.063Z,98695.63
2023-03-11T15:15:38.363Z,98704.72
2023-03-11T15:18:42.655Z,98721.37
2023-03-11T15:21:46.679Z,98738.84
2023-03-11T15:24:52.005Z,98724.00
2023-03-11T15:27:54.996Z,98737.69
2023-03-11T15:31:16.850Z,98736.69
2023-03-11T15:34:26.325Z,98735.00
2023-03-11T15:37:28.837Z,98738.09
2023-03-11T15:40:45.537Z,98754.56
2023-03-11T15:47:19.376Z,98745.28
2023-03-11T15:50:40.065Z,98759.41
2023-03-11T15:53:50.443Z,98779.16
2023-03-11T15:56:55.321Z,98783.66
2023-03-11T16:00:01.067Z,98801.56
2023-03-11T16:03:10.253Z,98787.09
2023-03-11T16:06:13.185Z,98808.34
2023-03-11T16:09:16.507Z,98807.31
2023-03-11T16:12:23.421Z,98797.28
2023-03-11T16:15:29.412Z,98805.91
2023-03-11T16:18:37.502Z,98806.84
2023-03-11T16:21:42.822Z,98813.41
2023-03-11T16:24:51.229Z,98816.88
2023-03-11T16:27:57.524Z,98823.12
2023-03-11T16:31:00.486Z,98836.66
2023-03-11T16:34:03.330Z,98843.63
2023-03-11T16:37:07.290Z,98850.19
2023-03-11T16:40:16.362Z,98861.72
2023-03-11T16:43:19.221Z,98853.81
2023-03-11T16:46:21.934Z,98871.69
2023-03-11T16:49:24.861Z,98873.44
2023-03-11T16:52:27.721Z,98875.41
2023-03-11T16:55:31.018Z,98881.34
2023-03-11T16:58:33.701Z,98884.56
2023-03-11T17:01:38.639Z,98902.72
2023-03-11T17:04:41.597Z,98915.06
2023-03-11T17:07:44.591Z,98910.47
2023-03-11T17:10:47.238Z,98914.53
2023-03-11T17:13:50.989Z,98921.38
2023-03-11T17:16:53.545Z,98919.47
2023-03-11T17:19:56.601Z,98930.00
2023-03-11T17:23:00.485Z,98938.38
2023-03-11T17:26:10.772Z,98945.91
2023-03-11T17:29:13.567Z,98946.56
2023-03-11T17:32:17.591Z,98949.31
2023-03-11T17:35:20.435Z,98952.22
2023-03-11T17:38:23.598Z,98962.22
2023-03-11T17:41:26.423Z,98963.25
2023-03-11T17:44:37.905Z,98981.94
2023-03-11T17:47:47.593Z,98982.91
2023-03-11T17:50:50.729Z,98985.94
2023-03-11T17:53:55.102Z,98991.56
2023-03-11T17:56:58.327Z,98984.66
2023-03-11T18:00:05.665Z,98991.56
2023-03-11T18:03:09.845Z,99000.00
2023-03-11T18:06:13.014Z,98997.56
2023-03-11T18:09:17.131Z,99008.09
2023-03-11T18:12:20.748Z,99017.75
2023-03-11T18:15:24.477Z,99013.38
2023-03-11T18:18:28.024Z,99019.66
2023-03-11T18:21:31.368Z,99015.38
2023-03-11T18:24:34.162Z,99011.91
2023-03-11T18:27:38.306Z,99021.31
2023-03-11T18:30:41.161Z,99034.06
2023-03-11T18:33:54.895Z,99044.03
2023-03-11T18:36:57.726Z,99038.69
2023-03-11T18:40:00.682Z,99061.78
2023-03-11T18:43:03.747Z,99051.69
2023-03-11T18:46:09.250Z,99051.41
2023-03-11T18:49:13.330Z,99067.91
2023-03-11T18:52:16.809Z,99086.47
2023-03-11T18:55:19.865Z,99072.91
2023-03-11T18:58:23.175Z,99079.13
2023-03-11T19:01:28.313Z,99086.59
2023-03-11T19:04:33.109Z,99086.75
2023-03-11T19:07:38.819Z,99091.31
2023-03-11T19:10:45.309Z,99087.16
2023-03-11T19:13:48.392Z,99091.59
2023-03-11T19:16:51.702Z,99098.78
2023-03-11T19:19:55.103Z,99108.47
2023-03-11T19:22:58.191Z,99126.31
2023-03-11T19:26:03.353Z,99132.56
2023-03-11T19:29:07.900Z,99126.75
2023-03-11T19:32:10.699Z,99130.47
2023-03-11T19:35:14.798Z,99135.88
2023-03-11T19:38:17.641Z,99126.19
2023-03-11T19:41:20.931Z,99143.34
2023-03-11T19:44:23.661Z,99143.06
2023-03-11T19:47:26.811Z,99146.19
2023-03-11T19:50:29.855Z,99143.03
2023-03-11T19:53:33.972Z,99163.34
2023-03-11T19:56:37.261Z,99162.81
2023-03-11T20:00:23.494Z,99173.72
2023-03-11T20:03:27.527Z,99185.19
2023-03-11T20:06:30.580Z,99168.56
2023-03-11T20:09:35.098Z,99167.06
2023-03-11T20:12:41.378Z,99165.63
2023-03-11T20:15:48.881Z,99156.47
2023-03-11T20:18:51.765Z,99157.41
2023-03-11T20:21:54.676Z,99142.19
2023-03-11T20:24:57.464Z,99141.03
2023-03-11T20:28:01.377Z,99140.78
2023-03-11T20:31:14.160Z,99127.22
2023-03-11T20:34:17.588Z,99114.28
2023-03-11T20:37:20.456Z,99102.53
2023-03-11T20:40:24.231Z,99101.13
2023-03-11T20:43:27.081Z,99126.16
2023-03-11T20:46:31.309Z,99130.91
2023-03-11T20:49:34.672Z,99152.75
2023-03-11T20:52:39.896Z,99160.53
2023-03-11T20:55:50.040Z,99164.47
2023-03-11T20:58:55.954Z,99168.75
2023-03-11T21:01:58.690Z,99178.78
2023-03-11T21:05:01.894Z,99174.75
2023-03-11T21:08:05.168Z,99170.91
2023-03-11T21:11:08.461Z,99169.56
2023-03-11T21:14:15.206Z,99167.25
2023-03-11T21:17:18.407Z,99164.19
2023-03-11T21:20:21.973Z,99160.53
2023-03-11T21:23:26.867Z,99172.44
2023-03-11T21:26:29.622Z,99166.88
2023-03-11T21:29:35.767Z,99174.31
2023-03-11T21:32:41.076Z,99182.12
2023-03-11T21:35:58.690Z,99206.38
2023-03-11T21:39:07.239Z,99209.59
2023-03-11T21:42:10.291Z,99223.19
2023-03-11T21:45:13.546Z,99233.69
2023-03-11T21:48:16.515Z,99239.66
2023-03-11T21:51:20.242Z,99232.00
2023-03-11T21:54:23.417Z,99219.38
2023-03-11T21:57:36.763Z,99217.31
2023-03-11T22:00:48.822Z,99218.16
2023-03-11T22:03:53.601Z,99231.00
2023-03-11T22:06:57.427Z,99246.09
2023-03-11T22:10:02.066Z,99256.72
2023-03-11T22:13:22.588Z,99250.56
2023-03-11T22:16:26.723Z,99238.81
2023-03-11T22:19:29.675Z,99248.94
2023-03-11T22:22:33.298Z,99245.00
2023-03-11T22:25:37.405Z,99241.47
2023-03-11T22:28:43.656Z,99254.97
2023-03-11T22:31:54.252Z,99249.56
2023-03-11T22:34:57.646Z,99250.62
2023-03-11T22:38:00.231Z,99265.91
2023-03-11T22:41:05.864Z,99278.19
2023-03-11T22:44:08.705Z,99284.50
2023-03-11T22:47:13.907Z,99294.75
2023-03-11T22:50:21.087Z,99309.78
2023-03-11T22:53:25.454Z,99303.34
2023-03-11T22:56:28.040Z,99313.59
2023-03-11T22:59:31.622Z,99303.25
2023-03-11T23:02:34.474Z,99300.97
2023-03-11T23:05:42.241Z,99316.34
2023-03-11T23:08:45.514Z,99327.09
2023-03-11T23:11:50.157Z,99329.81
2023-03-11T23:14:52.701Z,99341.75
2023-03-11T23:17:55.592Z,99356.03
2023-03-11T23:20:58.216Z,99343.03
2023-03-11T23:24:02.922Z,99338.03
2023-03-11T23:27:05.505Z,99351.03
2023-03-11T23:30:10.757Z,99346.75
2023-03-11T23:33:13.671Z,99358.06
2023-03-11T23:36:21.003Z,99380.09
2023-03-11T23:39:32.026Z,99385.22
2023-03-11T23:43:16.086Z,99380.59
2023-03-11T23:46:20.434Z,99390.22
2023-03-11T23:49:23.346Z,99385.13
2023-03-11T23:52:26.375Z,99398.44
2023-03-11T23:55:29.429Z,99406.09
2023-03-11T23:58:33.054Z,99411.09
